Prague, Czech Republic

4:48 PM CEST on September 23, 2014 (GMT +0200)
Jenec | Change Station
CLOSE
Current Station
Personal Weather Station
Location: Jenec, Stredocesky Kraj
Elevation: 1211 ft
Nearby Weather Stations

Elev 1211 ft 50.09 °N, 14.21 °E | Updated 8 minutes ago

Scattered Clouds
Scattered Clouds
56.3 °F
Feels Like 56.3 °F
N
1.6
Wind Variable Wind from NNE
Gusts 11.4 mph

Today
High -- | Low -- °F
--% Chance of Precip.
Yesterday
High -- | Low -- °F
Precip. -- in
6:50 AM 6:59 PM
Waning Crescent, 0% visible
Pressure 30.09 in
Visibility 6.2 miles
Clouds Few 3700 ft
Scattered Clouds 4900 ft
Dew Point 42 °F
Humidity 59%
Rainfall 0.00 in
Snow Depth Not available.
UV 2 out of 12
Pollen Not available.
Air Quality Not available.
Flu Activity Not available.
METAR LKPR 231430Z 27011KT 9999 FEW037 SCT049 12/04 Q1019 NOSIG

More Conditions Fewer Conditions

Pressure 30.09 in
Visibility 6.2 miles
Clouds Few 3700 ft
Scattered Clouds 4900 ft
Dew Point 42 °F
Humidity 59%
Rainfall 0.00 in
Snow Depth Not available.
UV 2 out of 12
Pollen Not available.
Air Quality Not available.
Flu Activity Not available.
METAR LKPR 231430Z 27011KT 9999 FEW037 SCT049 12/04 Q1019 NOSIG

More Conditions Fewer Conditions

10-Day Weather Forecast

Almanac

Astronomy

Sep. 23, 2014 Rise Set
Actual Time 6:50 AM CEST 6:59 PM CEST
Civil Twilight 6:18 AM CEST 7:31 PM CEST
Nautical Twilight 5:39 AM CEST 8:09 PM CEST
Astronomical Twilight 5:00 AM CEST 8:48 PM CEST
Moon 5:56 AM CEST 6:28 PM CEST
Length of Visible Light 13h 13m
Length of Day
12h 08m
Tomorrow will be 3m 43s shorter.
Waning Crescent, 0% of the Moon is Illuminated
Today
Waning Crescent
Sep 24
New
Oct 1
First Quarter
Oct 8
Full
Oct 15
Last Quarter

Today's Extremes

Country Highs Country Lows

Community

WunderPhotos

Upload Photos

1,755,711 photos uploaded!

Nearby

Snow Depth

Not available.

Earthquake Activity

City Distance Mag. Time & Date
No recent earthquake activity has been reported nearby.
Minimum magnitude displayed is 2.5.

Coastal Water Temperatures

Place Temperature
No Stations Reporting

Nearby Weather Stations